createdAt,value
2018-01-02T00:00:29.366Z,988.79
2018-01-02T00:01:29.388Z,989.03
2018-01-02T00:02:29.321Z,988.73
2018-01-02T00:03:29.399Z,988.87
2018-01-02T00:04:29.267Z,988.84
2018-01-02T00:05:29.236Z,988.80
2018-01-02T00:06:29.316Z,988.84
2018-01-02T00:07:29.181Z,988.97
2018-01-02T00:08:29.227Z,988.96
2018-01-02T00:09:29.132Z,989.04
2018-01-02T00:10:29.135Z,988.90
2018-01-02T00:11:29.081Z,988.97
2018-01-02T00:12:29.154Z,988.92
2018-01-02T00:13:29.029Z,988.98
2018-01-02T00:14:29.057Z,988.96
2018-01-02T00:15:29.064Z,989.09
2018-01-02T00:16:28.948Z,989.12
2018-01-02T00:17:28.974Z,989.01
2018-01-02T00:18:28.894Z,989.08
2018-01-02T00:19:28.886Z,988.98
2018-01-02T00:20:28.842Z,989.01
2018-01-02T00:21:28.894Z,989.10
2018-01-02T00:22:28.785Z,989.07
2018-01-02T00:23:28.805Z,989.13
2018-01-02T00:24:28.811Z,989.14
2018-01-02T00:25:28.712Z,989.08
2018-01-02T00:26:28.718Z,989.15
2018-01-02T00:27:28.657Z,989.08
2018-01-02T00:28:28.733Z,989.20
2018-01-02T00:29:28.601Z,989.11
2018-01-02T00:30:28.579Z,989.21
2018-01-02T00:31:28.649Z,989.21
2018-01-02T00:32:28.522Z,989.24
2018-01-02T00:33:28.563Z,989.30
2018-01-02T00:34:28.473Z,989.25
2018-01-02T00:35:28.471Z,989.30
2018-01-02T00:36:28.421Z,989.35
2018-01-02T00:37:28.484Z,989.29
2018-01-02T00:38:28.367Z,989.30
2018-01-02T00:39:28.340Z,989.32
2018-01-02T00:40:28.322Z,989.38
2018-01-02T00:41:28.306Z,989.33
2018-01-02T00:42:28.262Z,989.46
2018-01-02T00:43:28.312Z,989.43
2018-01-02T00:44:28.209Z,989.53
2018-01-02T00:45:28.182Z,989.46
2018-01-02T00:46:28.229Z,989.48
2018-01-02T00:47:28.126Z,989.43
2018-01-02T00:48:28.140Z,989.46
2018-01-02T00:49:28.073Z,989.52
2018-01-02T00:50:28.153Z,989.50
2018-01-02T00:51:28.020Z,989.49
2018-01-02T00:52:28.062Z,989.48
2018-01-02T00:53:27.966Z,989.50
2018-01-02T00:54:27.970Z,989.54
2018-01-02T00:55:27.979Z,989.58
2018-01-02T00:56:27.892Z,989.55
2018-01-02T00:57:27.892Z,989.56
2018-01-02T00:58:27.838Z,989.61
2018-01-02T00:59:27.903Z,989.64
2018-01-02T01:00:27.784Z,989.61
2018-01-02T01:01:27.762Z,989.69
2018-01-02T01:02:27.820Z,989.66
2018-01-02T01:03:27.709Z,989.73
2018-01-02T01:04:27.726Z,989.77
2018-01-02T01:05:27.658Z,989.69
2018-01-02T01:06:27.623Z,989.72
2018-01-02T01:07:27.644Z,989.79
2018-01-02T01:08:27.579Z,989.76
2018-01-02T01:09:27.656Z,989.76
2018-01-02T01:10:27.523Z,989.84
2018-01-02T01:11:27.563Z,989.84
2018-01-02T01:12:27.468Z,989.81
2018-01-02T01:13:27.472Z,989.84
2018-01-02T01:14:27.479Z,989.91
2018-01-02T01:15:27.387Z,989.95
2018-01-02T01:16:27.392Z,989.95
2018-01-02T01:17:27.338Z,989.92
2018-01-02T01:18:27.402Z,990.00
2018-01-02T01:19:27.282Z,989.99
2018-01-02T01:20:27.258Z,990.02
2018-01-02T01:21:27.320Z,990.09
2018-01-02T01:22:27.204Z,990.05
2018-01-02T01:23:27.230Z,990.06
2018-01-02T01:24:27.151Z,990.09
2018-01-02T01:25:27.138Z,990.11
2018-01-02T01:26:27.103Z,990.11
2018-01-02T01:27:27.071Z,990.12
2018-01-02T01:28:27.055Z,990.15
2018-01-02T01:29:27.062Z,990.17
2018-01-02T01:30:26.991Z,990.27
2018-01-02T01:31:27.074Z,990.33
2018-01-02T01:32:26.938Z,990.29
2018-01-02T01:33:26.911Z,990.27
2018-01-02T01:34:26.994Z,990.31
2018-01-02T01:35:26.864Z,990.32
2018-01-02T01:36:26.900Z,990.35
2018-01-02T01:37:26.828Z,990.33
2018-01-02T01:38:26.810Z,990.38
2018-01-02T01:39:26.831Z,990.42
2018-01-02T01:40:26.729Z,990.42
2018-01-02T01:41:26.725Z,990.40
2018-01-02T01:42:26.682Z,990.48
2018-01-02T01:43:26.738Z,990.49
2018-01-02T01:44:26.623Z,990.49
2018-01-02T01:45:26.648Z,990.47
2018-01-02T01:46:26.571Z,990.51
2018-01-02T01:47:26.662Z,990.51
2018-01-02T01:48:26.518Z,990.53
2018-01-02T01:49:26.573Z,990.57
2018-01-02T01:50:26.469Z,990.55
2018-01-02T01:51:26.444Z,990.57
2018-01-02T01:52:26.413Z,990.64
2018-01-02T01:53:26.494Z,990.70
2018-01-02T01:54:26.358Z,990.64
2018-01-02T01:55:26.399Z,990.70
2018-01-02T01:56:26.317Z,990.74
2018-01-02T01:57:26.283Z,990.73
2018-01-02T01:58:26.262Z,990.79
2018-01-02T01:59:26.324Z,990.78
2018-01-02T02:00:26.211Z,990.71
2018-01-02T02:01:26.257Z,990.78
2018-01-02T02:02:26.157Z,990.80
2018-01-02T02:03:26.141Z,990.75
2018-01-02T02:04:26.105Z,990.77
2018-01-02T02:05:26.156Z,990.75
2018-01-02T02:06:26.051Z,990.85
2018-01-02T02:07:26.065Z,990.78
2018-01-02T02:08:26.001Z,990.77
2018-01-02T02:09:26.077Z,990.85
2018-01-02T02:10:25.946Z,990.82
2018-01-02T02:11:25.988Z,990.81
2018-01-02T02:12:25.893Z,990.81
2018-01-02T02:13:25.873Z,990.81
2018-01-02T02:14:25.836Z,990.80
2018-01-02T02:15:25.909Z,990.82
2018-01-02T02:16:25.789Z,990.84
2018-01-02T02:17:25.821Z,990.83
2018-01-02T02:18:25.733Z,990.91
2018-01-02T02:19:25.730Z,990.86
2018-01-02T02:20:25.683Z,990.93
2018-01-02T02:21:25.743Z,990.87
2018-01-02T02:22:25.626Z,990.89
2018-01-02T02:23:25.653Z,990.92
2018-01-02T02:24:25.578Z,990.93
2018-01-02T02:25:25.664Z,990.93
2018-01-02T02:26:25.520Z,990.89
2018-01-02T02:27:25.575Z,990.88
2018-01-02T02:28:25.470Z,990.90
2018-01-02T02:29:25.445Z,990.89
2018-01-02T02:30:25.423Z,990.96
2018-01-02T02:31:25.499Z,990.89
2018-01-02T02:32:25.370Z,990.90
2018-01-02T02:33:25.404Z,990.95
2018-01-02T02:34:25.317Z,990.94
2018-01-02T02:35:25.289Z,990.96
2018-01-02T02:36:25.321Z,990.94
2018-01-02T02:37:25.238Z,990.93
2018-01-02T02:38:25.234Z,990.93
2018-01-02T02:39:25.184Z,990.98
2018-01-02T02:40:25.247Z,990.93
2018-01-02T02:41:25.130Z,991.03
2018-01-02T02:42:25.158Z,990.96
2018-01-02T02:43:25.076Z,991.00
2018-01-02T02:44:25.171Z,991.06
2018-01-02T02:45:25.025Z,991.00
2018-01-02T02:46:25.076Z,991.03
2018-01-02T02:47:24.981Z,991.03
2018-01-02T02:48:24.987Z,991.04
2018-01-02T02:49:24.923Z,991.02
2018-01-02T02:50:24.900Z,991.07
2018-01-02T02:51:24.871Z,991.08
2018-01-02T02:52:24.909Z,991.04
2018-01-02T02:53:24.818Z,991.10
2018-01-02T02:54:24.819Z,991.13
2018-01-02T02:55:24.767Z,991.13
2018-01-02T02:56:24.732Z,991.12
2018-01-02T02:57:24.740Z,991.04
2018-01-02T02:58:24.682Z,991.12
2018-01-02T02:59:24.749Z,991.14
2018-01-02T03:00:24.629Z,991.12
2018-01-02T03:01:24.610Z,991.18
2018-01-02T03:02:24.664Z,991.10
2018-01-02T03:03:24.557Z,991.08
2018-01-02T03:04:24.622Z,991.17
2018-01-02T03:05:24.498Z,991.15
2018-01-02T03:06:24.474Z,991.22
2018-01-02T03:07:24.444Z,991.20
2018-01-02T03:08:24.495Z,991.20
2018-01-02T03:09:24.396Z,991.21
2018-01-02T03:10:24.407Z,991.26
2018-01-02T03:11:24.338Z,991.24
2018-01-02T03:12:24.418Z,991.21
2018-01-02T03:13:24.318Z,991.33
2018-01-02T03:14:24.271Z,991.26
2018-01-02T03:15:24.335Z,991.30
2018-01-02T03:16:24.208Z,991.33
2018-01-02T03:17:24.243Z,991.34
2018-01-02T03:18:24.161Z,991.31
2018-01-02T03:19:24.137Z,991.33
2018-01-02T03:20:24.262Z,991.36
2018-01-02T03:21:24.083Z,991.34
2018-01-02T03:22:24.070Z,991.34
2018-01-02T03:23:24.028Z,991.38
2018-01-02T03:24:24.005Z,991.41
2018-01-02T03:25:23.978Z,991.43
2018-01-02T03:26:23.994Z,991.45
2018-01-02T03:27:23.920Z,991.42
2018-01-02T03:28:24.004Z,991.40
2018-01-02T03:29:23.876Z,991.44
2018-01-02T03:30:23.847Z,991.39
2018-01-02T03:31:23.920Z,991.47
2018-01-02T03:32:23.792Z,991.41
2018-01-02T03:33:23.832Z,991.49
2018-01-02T03:34:23.737Z,991.42
2018-01-02T03:35:23.741Z,991.43
2018-01-02T03:36:23.697Z,991.44
2018-01-02T03:37:23.759Z,991.40
2018-01-02T03:38:23.634Z,991.45
2018-01-02T03:39:23.675Z,991.44
2018-01-02T03:40:23.671Z,991.48
2018-01-02T03:41:23.554Z,991.44
2018-01-02T03:42:23.579Z,991.49
2018-01-02T03:43:23.508Z,991.47
2018-01-02T03:44:23.591Z,991.50
2018-01-02T03:45:23.448Z,991.49
2018-01-02T03:46:23.499Z,991.61
2018-01-02T03:47:23.400Z,991.48
2018-01-02T03:48:23.412Z,991.50
2018-01-02T03:49:23.350Z,991.51
2018-01-02T03:50:23.422Z,991.49
2018-01-02T03:51:23.294Z,991.43
2018-01-02T03:52:23.273Z,991.55
2018-01-02T03:53:23.246Z,991.49
2018-01-02T03:54:23.242Z,991.50
2018-01-02T03:55:23.188Z,991.53
2018-01-02T03:56:23.254Z,991.52
2018-01-02T03:57:23.140Z,991.58
2018-01-02T03:58:23.165Z,991.59
2018-01-02T03:59:23.089Z,991.59
2018-01-02T04:00:23.177Z,991.61
2018-01-02T04:01:23.032Z,991.62
2018-01-02T04:02:23.084Z,991.61
2018-01-02T04:03:22.985Z,991.65
2018-01-02T04:04:22.995Z,991.61
2018-01-02T04:05:23.005Z,991.58
2018-01-02T04:06:22.905Z,991.63
2018-01-02T04:07:22.913Z,991.64
2018-01-02T04:08:22.848Z,991.64
2018-01-02T04:09:22.927Z,991.67
2018-01-02T04:10:22.801Z,991.67
2018-01-02T04:11:22.833Z,991.65
2018-01-02T04:12:22.744Z,991.68
2018-01-02T04:13:22.745Z,991.66
2018-01-02T04:14:22.695Z,991.71
2018-01-02T04:15:22.666Z,991.69
2018-01-02T04:16:22.643Z,991.73
2018-01-02T04:17:22.668Z,991.72
2018-01-02T04:18:22.589Z,991.77
2018-01-02T04:19:22.576Z,991.77
2018-01-02T04:20:22.539Z,991.82
2018-01-02T04:21:22.590Z,991.82
2018-01-02T04:22:22.486Z,991.81
2018-01-02T04:23:22.456Z,991.82
2018-01-02T04:24:22.504Z,991.89
2018-01-02T04:25:22.404Z,991.92
2018-01-02T04:26:22.416Z,991.86
2018-01-02T04:27:22.355Z,991.89
2018-01-02T04:28:22.332Z,991.96
2018-01-02T04:29:22.304Z,992.04
2018-01-02T04:30:22.337Z,992.02
2018-01-02T04:31:22.250Z,992.09
2018-01-02T04:32:22.246Z,992.07
2018-01-02T04:33:22.198Z,992.03
2018-01-02T04:34:22.261Z,992.10
2018-01-02T04:35:22.148Z,992.07
2018-01-02T04:36:22.170Z,992.09
2018-01-02T04:37:22.094Z,992.18
2018-01-02T04:38:22.080Z,992.18
2018-01-02T04:39:22.086Z,992.22
2018-01-02T04:40:22.015Z,992.21
2018-01-02T04:41:22.101Z,992.29
2018-01-02T04:42:21.960Z,992.33
2018-01-02T04:43:22.010Z,992.27
2018-01-02T04:44:22.016Z,992.29
2018-01-02T04:45:21.891Z,992.29
2018-01-02T04:46:21.931Z,992.33
2018-01-02T04:47:21.836Z,992.30
2018-01-02T04:48:21.832Z,992.35
2018-01-02T04:49:21.777Z,992.37
2018-01-02T04:50:21.752Z,992.44
2018-01-02T04:51:21.750Z,992.38
2018-01-02T04:52:21.703Z,992.34
2018-01-02T04:53:21.770Z,992.42
2018-01-02T04:54:21.646Z,992.46
2018-01-02T04:55:21.623Z,992.55
2018-01-02T04:56:21.682Z,992.50
2018-01-02T04:57:21.579Z,992.50
2018-01-02T04:58:21.590Z,992.53
2018-01-02T04:59:21.522Z,992.54
2018-01-02T05:00:21.493Z,992.49
2018-01-02T05:01:21.473Z,992.55
2018-01-02T05:02:21.510Z,992.56
2018-01-02T05:03:21.413Z,992.61
2018-01-02T05:04:21.422Z,992.63
2018-01-02T05:05:21.426Z,992.63
2018-01-02T05:06:21.340Z,992.65
2018-01-02T05:07:21.339Z,992.66
2018-01-02T05:08:21.282Z,992.64
2018-01-02T05:09:21.348Z,992.69
2018-01-02T05:10:21.233Z,992.78
2018-01-02T05:11:21.209Z,992.76
2018-01-02T05:12:21.265Z,992.84
2018-01-02T05:13:21.150Z,992.83
2018-01-02T05:14:21.175Z,992.84
2018-01-02T05:15:21.098Z,992.86
2018-01-02T05:16:21.188Z,992.89
2018-01-02T05:17:21.045Z,992.88
2018-01-02T05:18:21.096Z,992.93
2018-01-02T05:19:20.997Z,992.95
2018-01-02T05:20:21.007Z,992.97
2018-01-02T05:21:20.942Z,993.03
2018-01-02T05:22:21.019Z,993.03
2018-01-02T05:23:20.892Z,993.05
2018-01-02T05:24:20.931Z,993.06
2018-01-02T05:25:20.843Z,993.11
2018-01-02T05:26:20.842Z,993.13
2018-01-02T05:27:20.788Z,993.11
2018-01-02T05:28:20.852Z,993.09
2018-01-02T05:29:20.740Z,993.12
2018-01-02T05:30:20.769Z,993.18
2018-01-02T05:31:20.683Z,993.18
2018-01-02T05:32:20.775Z,993.26
2018-01-02T05:33:20.630Z,993.24
2018-01-02T05:34:20.614Z,993.24
2018-01-02T05:35:20.690Z,993.36
2018-01-02T05:36:20.570Z,993.29
2018-01-02T05:37:20.598Z,993.38
2018-01-02T05:38:20.501Z,993.37
2018-01-02T05:39:20.481Z,993.34
2018-01-02T05:40:20.449Z,993.37
2018-01-02T05:41:20.529Z,993.36
2018-01-02T05:42:20.399Z,993.35
2018-01-02T05:43:20.438Z,993.38
2018-01-02T05:44:20.344Z,993.44
2018-01-02T05:45:20.324Z,993.46
2018-01-02T05:46:20.348Z,993.51
2018-01-02T05:47:20.271Z,993.51
2018-01-02T05:48:20.361Z,993.55
2018-01-02T05:49:20.222Z,993.49
2018-01-02T05:50:20.190Z,993.51
2018-01-02T05:51:20.169Z,993.50
2018-01-02T05:52:20.178Z,993.54
2018-01-02T05:53:20.119Z,993.58
2018-01-02T05:54:20.192Z,993.54
2018-01-02T05:55:20.057Z,993.55
2018-01-02T05:56:20.101Z,993.57
2018-01-02T05:57:20.010Z,993.60
2018-01-02T05:58:20.019Z,993.55
2018-01-02T05:59:19.953Z,993.57
2018-01-02T06:00:20.023Z,993.60
2018-01-02T06:01:19.906Z,993.67
2018-01-02T06:02:19.931Z,993.69
2018-01-02T06:03:19.857Z,993.73
2018-01-02T06:04:19.843Z,993.72
2018-01-02T06:05:19.802Z,993.73
2018-01-02T06:06:19.773Z,993.78
2018-01-02T06:07:19.755Z,993.69
2018-01-02T06:08:19.768Z,993.78
2018-01-02T06:09:19.702Z,993.76
2018-01-02T06:10:19.778Z,993.80
2018-01-02T06:11:19.645Z,993.82
2018-01-02T06:12:19.689Z,993.84
2018-01-02T06:13:19.591Z,993.89
2018-01-02T06:14:19.598Z,993.91
2018-01-02T06:15:19.542Z,993.95
2018-01-02T06:16:19.609Z,993.98
2018-01-02T06:17:19.484Z,993.98
2018-01-02T06:18:19.521Z,994.01
2018-01-02T06:19:19.438Z,994.05
2018-01-02T06:20:19.428Z,994.05
2018-01-02T06:21:19.385Z,994.11
2018-01-02T06:22:19.440Z,994.05
2018-01-02T06:23:19.335Z,994.11
2018-01-02T06:24:19.350Z,994.12
2018-01-02T06:25:19.281Z,994.22
2018-01-02T06:26:19.363Z,994.17
2018-01-02T06:27:19.230Z,994.15
2018-01-02T06:28:19.200Z,994.21
2018-01-02T06:29:19.177Z,994.21
2018-01-02T06:30:19.182Z,994.31
2018-01-02T06:31:19.127Z,994.31
2018-01-02T06:32:19.196Z,994.33
2018-01-02T06:33:19.102Z,994.29
2018-01-02T06:34:19.043Z,994.29
2018-01-02T06:35:19.111Z,994.32
2018-01-02T06:36:18.994Z,994.33
2018-01-02T06:37:19.024Z,994.37
2018-01-02T06:38:18.943Z,994.40
2018-01-02T06:39:18.937Z,994.40
2018-01-02T06:40:18.897Z,994.45
2018-01-02T06:41:18.945Z,994.44
2018-01-02T06:42:18.839Z,994.41
2018-01-02T06:43:18.853Z,994.50
2018-01-02T06:44:18.788Z,994.47
2018-01-02T06:45:18.869Z,994.42
2018-01-02T06:46:18.736Z,994.50
2018-01-02T06:47:18.780Z,994.48
2018-01-02T06:48:18.684Z,994.50
2018-01-02T06:49:18.690Z,994.48
2018-01-02T06:50:18.630Z,994.46
2018-01-02T06:51:18.701Z,994.45
2018-01-02T06:52:18.574Z,994.43
2018-01-02T06:53:18.609Z,994.48
2018-01-02T06:54:18.526Z,994.51
2018-01-02T06:55:18.517Z,994.43
2018-01-02T06:56:18.476Z,994.50
2018-01-02T06:57:18.443Z,994.56
2018-01-02T06:58:18.436Z,994.52
2018-01-02T06:59:18.390Z,994.54
2018-01-02T07:00:18.446Z,994.59
2018-01-02T07:01:18.343Z,994.62
2018-01-02T07:02:18.317Z,994.59
2018-01-02T07:03:18.285Z,994.67
2018-01-02T07:04:18.372Z,994.70
2018-01-02T07:05:18.239Z,994.73
2018-01-02T07:06:18.327Z,994.70
2018-01-02T07:07:18.284Z,994.73
2018-01-02T07:08:18.164Z,994.80
2018-01-02T07:09:18.194Z,994.80
2018-01-02T07:10:18.102Z,994.76
2018-01-02T07:11:18.104Z,994.83
2018-01-02T07:12:18.057Z,994.82
2018-01-02T07:13:18.117Z,994.81
2018-01-02T07:14:18.000Z,994.83
2018-01-02T07:15:18.027Z,994.97
2018-01-02T07:16:17.954Z,994.93
2018-01-02T07:17:18.036Z,994.95
2018-01-02T07:18:17.900Z,994.98
2018-01-02T07:19:17.948Z,994.98
2018-01-02T07:20:17.845Z,995.05
2018-01-02T07:21:17.859Z,995.19
2018-01-02T07:22:17.796Z,995.14
2018-01-02T07:23:17.872Z,995.11
2018-01-02T07:24:17.742Z,995.04
2018-01-02T07:25:17.716Z,995.12
2018-01-02T07:26:17.696Z,995.15
2018-01-02T07:27:17.681Z,995.15
2018-01-02T07:28:17.637Z,995.16
2018-01-02T07:29:17.707Z,995.18
2018-01-02T07:30:17.587Z,995.21
2018-01-02T07:31:17.613Z,995.19
2018-01-02T07:32:17.530Z,995.26
2018-01-02T07:33:17.625Z,995.22
2018-01-02T07:34:17.480Z,995.34
2018-01-02T07:35:17.535Z,995.27
2018-01-02T07:36:17.430Z,995.32
2018-01-02T07:37:17.447Z,995.30
2018-01-02T07:38:17.377Z,995.32
2018-01-02T07:39:17.360Z,995.26
2018-01-02T07:40:17.326Z,995.32
2018-01-02T07:41:17.304Z,995.41
2018-01-02T07:42:17.273Z,995.47
2018-01-02T07:43:17.279Z,995.38
2018-01-02T07:44:17.219Z,995.37
2018-01-02T07:45:17.293Z,995.42
2018-01-02T07:46:17.196Z,995.52
2018-01-02T07:47:17.149Z,995.48
2018-01-02T07:48:17.233Z,995.53
2018-01-02T07:49:17.120Z,995.58
2018-01-02T07:50:17.116Z,995.54
2018-01-02T07:51:17.122Z,995.59
2018-01-02T07:52:17.023Z,995.64
2018-01-02T07:53:17.034Z,995.65
2018-01-02T07:54:17.026Z,995.68
2018-01-02T07:55:17.043Z,995.63
2018-01-02T07:56:16.948Z,995.68
2018-01-02T07:57:16.887Z,995.65
2018-01-02T07:58:16.873Z,995.76
2018-01-02T07:59:16.852Z,995.73
2018-01-02T08:00:16.870Z,995.76
2018-01-02T08:01:16.781Z,995.83
2018-01-02T08:02:16.781Z,995.88
2018-01-02T08:03:16.726Z,995.94
2018-01-02T08:04:16.793Z,995.91
2018-01-02T08:05:16.676Z,995.92
2018-01-02T08:06:16.708Z,995.93
2018-01-02T08:07:16.621Z,996.03
2018-01-02T08:08:16.715Z,996.03
2018-01-02T08:09:16.587Z,996.05
2018-01-02T08:10:16.629Z,996.04
2018-01-02T08:11:16.527Z,996.08
2018-01-02T08:12:16.497Z,996.14
2018-01-02T08:13:16.538Z,996.20
2018-01-02T08:14:16.448Z,996.23
2018-01-02T08:15:16.453Z,996.14
2018-01-02T08:16:16.387Z,996.31
2018-01-02T08:17:16.363Z,996.26
2018-01-02T08:18:16.336Z,996.34
2018-01-02T08:19:16.327Z,996.28
2018-01-02T08:20:16.285Z,996.32
2018-01-02T08:21:16.283Z,996.33
2018-01-02T08:22:16.288Z,996.36
2018-01-02T08:23:16.211Z,996.46
2018-01-02T08:24:16.185Z,996.31
2018-01-02T08:25:16.163Z,996.38
2018-01-02T08:26:16.219Z,996.46
2018-01-02T08:27:16.101Z,996.51
2018-01-02T08:28:16.122Z,996.51
2018-01-02T08:29:16.056Z,996.51
2018-01-02T08:30:16.134Z,996.49
2018-01-02T08:31:16.002Z,996.56
2018-01-02T08:32:16.045Z,996.56
2018-01-02T08:33:15.950Z,996.54
2018-01-02T08:34:15.954Z,996.57
2018-01-02T08:35:15.892Z,996.59
2018-01-02T08:36:15.871Z,996.66
2018-01-02T08:37:15.871Z,996.66
2018-01-02T08:38:15.815Z,996.59
2018-01-02T08:39:15.882Z,996.65
2018-01-02T08:40:15.767Z,996.66
2018-01-02T08:41:15.740Z,996.64
2018-01-02T08:42:15.707Z,996.70
2018-01-02T08:43:15.704Z,996.67
2018-01-02T08:44:15.662Z,996.64
2018-01-02T08:45:15.717Z,996.67
2018-01-02T08:46:15.606Z,996.80
2018-01-02T08:47:15.624Z,996.82
2018-01-02T08:48:15.559Z,996.86
2018-01-02T08:49:15.639Z,996.81
2018-01-02T08:50:15.504Z,996.83
2018-01-02T08:51:15.478Z,996.92
2018-01-02T08:52:15.448Z,996.92
2018-01-02T08:53:15.455Z,996.87
2018-01-02T08:54:15.418Z,996.92
2018-01-02T08:55:15.468Z,996.98
2018-01-02T08:56:15.344Z,996.91
2018-01-02T08:57:15.376Z,996.98
2018-01-02T08:58:15.294Z,996.99
2018-01-02T08:59:15.289Z,997.02
2018-01-02T09:00:15.240Z,997.04
2018-01-02T09:01:15.213Z,997.01
2018-01-02T09:02:15.189Z,997.06
2018-01-02T09:03:15.210Z,997.13
2018-01-02T09:04:15.135Z,997.15
2018-01-02T09:05:15.239Z,997.23
2018-01-02T09:06:15.080Z,997.21
2018-01-02T09:07:15.131Z,997.20
2018-01-02T09:08:15.033Z,997.26
2018-01-02T09:09:15.044Z,997.25
2018-01-02T09:10:14.981Z,997.29
2018-01-02T09:11:15.057Z,997.31
2018-01-02T09:12:14.939Z,997.27
2018-01-02T09:13:14.899Z,997.37
2018-01-02T09:14:14.973Z,997.37
2018-01-02T09:15:14.848Z,997.35
2018-01-02T09:16:14.883Z,997.42
2018-01-02T09:17:14.797Z,997.38
2018-01-02T09:18:14.788Z,997.38
2018-01-02T09:19:14.744Z,997.37
2018-01-02T09:20:14.718Z,997.38
2018-01-02T09:21:14.693Z,997.42
2018-01-02T09:22:14.714Z,997.42
2018-01-02T09:23:14.643Z,997.47
2018-01-02T09:24:14.610Z,997.46
2018-01-02T09:25:14.631Z,997.50
2018-01-02T09:26:14.558Z,997.53
2018-01-02T09:27:14.641Z,997.59
2018-01-02T09:28:14.504Z,997.57
2018-01-02T09:29:14.553Z,997.54
2018-01-02T09:30:14.451Z,997.51
2018-01-02T09:31:14.460Z,997.58
2018-01-02T09:32:14.404Z,997.53
2018-01-02T09:33:14.472Z,997.54
2018-01-02T09:34:14.350Z,997.59
2018-01-02T09:35:14.330Z,997.60
2018-01-02T09:36:14.388Z,997.61
2018-01-02T09:37:14.274Z,997.57
2018-01-02T09:38:14.297Z,997.59
2018-01-02T09:39:14.256Z,997.62
2018-01-02T09:40:14.196Z,997.59
2018-01-02T09:41:14.171Z,997.59
2018-01-02T09:42:14.219Z,997.65
2018-01-02T09:43:14.112Z,997.68
2018-01-02T09:44:14.132Z,997.65
2018-01-02T09:45:14.090Z,997.66
2018-01-02T09:46:14.142Z,997.68
2018-01-02T09:47:14.011Z,997.69
2018-01-02T09:48:14.054Z,997.61
2018-01-02T09:49:13.958Z,997.68
2018-01-02T09:50:13.938Z,997.67
2018-01-02T09:51:13.907Z,997.68
2018-01-02T09:52:13.881Z,997.73
2018-01-02T09:53:13.851Z,997.68
2018-01-02T09:54:13.886Z,997.77
2018-01-02T09:55:13.813Z,997.80
2018-01-02T09:56:13.794Z,997.86
2018-01-02T09:57:13.746Z,997.84
2018-01-02T09:58:13.813Z,997.87
2018-01-02T09:59:13.699Z,997.95
2018-01-02T10:00:13.717Z,997.87
2018-01-02T10:01:13.642Z,997.92
2018-01-02T10:02:13.730Z,997.89
2018-01-02T10:03:13.588Z,997.93
2018-01-02T10:04:13.639Z,997.93
2018-01-02T10:05:13.540Z,997.96
2018-01-02T10:06:13.550Z,997.90
2018-01-02T10:07:13.494Z,998.07
2018-01-02T10:08:13.474Z,997.97
2018-01-02T10:09:13.438Z,997.98
2018-01-02T10:10:13.470Z,998.09
2018-01-02T10:11:13.384Z,998.01
2018-01-02T10:12:13.385Z,997.97
2018-01-02T10:13:13.388Z,998.03
2018-01-02T10:14:13.306Z,998.03
2018-01-02T10:15:13.400Z,998.00
2018-01-02T10:16:13.248Z,997.99
2018-01-02T10:17:13.236Z,997.99
2018-01-02T10:18:13.196Z,998.06
2018-01-02T10:19:13.220Z,998.02
2018-01-02T10:20:13.145Z,998.02
2018-01-02T10:21:13.231Z,998.06
2018-01-02T10:22:13.141Z,998.03
2018-01-02T10:23:13.071Z,998.04
2018-01-02T10:24:13.077Z,998.07
2018-01-02T10:25:13.026Z,998.06
2018-01-02T10:26:12.995Z,998.07
2018-01-02T10:27:12.970Z,998.05
2018-01-02T10:28:12.947Z,998.02
2018-01-02T10:29:12.915Z,998.00
2018-01-02T10:30:12.892Z,998.05
2018-01-02T10:31:12.882Z,998.10
2018-01-02T10:32:12.837Z,998.04
2018-01-02T10:33:12.814Z,998.08
2018-01-02T10:34:12.783Z,998.00
2018-01-02T10:35:12.804Z,998.10
2018-01-02T10:36:12.735Z,998.06
2018-01-02T10:37:12.818Z,998.06
2018-01-02T10:38:12.680Z,998.07
2018-01-02T10:39:12.731Z,998.08
2018-01-02T10:40:12.630Z,998.07
2018-01-02T10:41:12.637Z,998.07
2018-01-02T10:42:12.576Z,998.01
2018-01-02T10:43:12.561Z,998.04
2018-01-02T10:44:12.559Z,998.02
2018-01-02T10:45:12.565Z,998.07
2018-01-02T10:46:12.470Z,997.98
2018-01-02T10:47:12.445Z,998.01
2018-01-02T10:48:12.420Z,997.95
2018-01-02T10:49:12.403Z,998.04
2018-01-02T10:50:12.408Z,997.93
2018-01-02T10:51:12.351Z,998.01
2018-01-02T10:52:12.315Z,998.01
2018-01-02T10:53:12.405Z,997.95
2018-01-02T10:54:12.259Z,997.98
2018-01-02T10:55:12.246Z,998.05
2018-01-02T10:56:12.216Z,998.04
2018-01-02T10:57:12.187Z,998.11
2018-01-02T10:58:12.156Z,998.14
2018-01-02T10:59:12.238Z,998.10
2018-01-02T11:00:12.114Z,998.09
2018-01-02T11:01:12.163Z,998.10
2018-01-02T11:02:12.070Z,998.09
2018-01-02T11:03:12.061Z,998.14
2018-01-02T11:04:11.998Z,998.19
2018-01-02T11:05:12.069Z,998.11
2018-01-02T11:06:11.956Z,998.14
2018-01-02T11:07:11.983Z,998.19
2018-01-02T11:08:11.900Z,998.22
2018-01-02T11:09:11.871Z,998.19
2018-01-02T11:10:11.851Z,998.23
2018-01-02T11:11:11.903Z,998.23
2018-01-02T11:12:11.793Z,998.23
2018-01-02T11:13:11.810Z,998.27
2018-01-02T11:14:11.745Z,998.24
2018-01-02T11:15:11.824Z,998.22
2018-01-02T11:16:11.689Z,998.23
2018-01-02T11:17:11.734Z,998.25
2018-01-02T11:18:11.638Z,998.24
2018-01-02T11:19:11.616Z,998.33
2018-01-02T11:20:11.586Z,998.29
2018-01-02T11:21:11.659Z,998.28
2018-01-02T11:22:11.533Z,998.32
2018-01-02T11:23:11.564Z,998.22
2018-01-02T11:24:11.486Z,998.25
2018-01-02T11:25:11.481Z,998.31
2018-01-02T11:26:11.434Z,998.27
2018-01-02T11:27:11.501Z,998.22
2018-01-02T11:28:11.383Z,998.26
2018-01-02T11:29:11.405Z,998.31
2018-01-02T11:30:11.336Z,998.27
2018-01-02T11:31:11.413Z,998.22
2018-01-02T11:32:11.280Z,998.24
2018-01-02T11:33:12.350Z,998.29
2018-01-02T11:34:11.228Z,998.25
2018-01-02T11:35:11.231Z,998.29
2018-01-02T11:36:11.180Z,998.34
2018-01-02T11:37:11.247Z,998.33
2018-01-02T11:38:11.127Z,998.31
2018-01-02T11:39:11.165Z,998.36
2018-01-02T11:40:11.068Z,998.35
2018-01-02T11:41:11.060Z,998.40
2018-01-02T11:42:11.023Z,998.39
2018-01-02T11:43:11.075Z,998.36
2018-01-02T11:44:10.963Z,998.38
2018-01-02T11:45:10.984Z,998.33
2018-01-02T11:46:10.918Z,998.37
2018-01-02T11:47:10.997Z,998.44
2018-01-02T11:48:10.902Z,998.42
2018-01-02T11:49:10.840Z,998.37
2018-01-02T11:50:10.912Z,998.33
2018-01-02T11:51:10.783Z,998.27
2018-01-02T11:52:10.824Z,998.33
2018-01-02T11:53:10.737Z,998.26
2018-01-02T11:54:10.736Z,998.31
2018-01-02T11:55:10.685Z,998.23
2018-01-02T11:56:10.745Z,998.29
2018-01-02T11:57:10.631Z,998.22
2018-01-02T11:58:10.657Z,998.19
2018-01-02T11:59:10.582Z,998.22
2018-01-02T12:00:10.564Z,998.13
2018-01-02T12:01:10.524Z,998.18
2018-01-02T12:02:10.580Z,998.12
2018-01-02T12:03:10.479Z,998.07
2018-01-02T12:04:10.488Z,998.10
2018-01-02T12:05:10.419Z,998.10
2018-01-02T12:06:10.501Z,998.08
2018-01-02T12:07:10.375Z,998.09
2018-01-02T12:08:10.408Z,998.09
2018-01-02T12:09:10.318Z,998.02
2018-01-02T12:10:10.321Z,998.06
2018-01-02T12:11:10.280Z,998.03
2018-01-02T12:12:10.331Z,998.12
2018-01-02T12:13:10.217Z,998.01
2018-01-02T12:14:10.198Z,998.03
2018-01-02T12:15:10.164Z,998.05
2018-01-02T12:16:10.140Z,998.04
2018-01-02T12:17:10.117Z,997.96
2018-01-02T12:18:10.181Z,997.98
2018-01-02T12:19:10.066Z,998.14
2018-01-02T12:20:10.037Z,997.94
2018-01-02T12:21:10.011Z,997.89
2018-01-02T12:22:09.985Z,997.85
2018-01-02T12:23:09.963Z,997.95
2018-01-02T12:24:09.994Z,997.87
2018-01-02T12:25:09.908Z,997.82
2018-01-02T12:26:09.880Z,997.83
2018-01-02T12:27:09.853Z,997.82
2018-01-02T12:28:09.828Z,997.86